Burlington, Maine
Current Conditions -  °F | °C
As of 7:25 AM on Tuesday 27 Jan 2015 (Local Time) from KMLT Reporting Station
Light Snow Light Snow  
Wind Chill: -11°   Ceiling: 2100
Heat Index:   Visibility: 1.2mi
Dew Point: -3°   Wind: 12mph
Humidity: 70%   Direction: 20°NNE
Pressure: 30.01"   Gusts: 28mph
Location:  45.21°N, 68.43°W
Report Text: KMLT 271225Z AUTO 02010G24KT 1 1/4SM -SN OVC021 M15/M19 A3001 RMK AO2 SNB00 P0000 T11501194
Loading
Personal Weather Stations






























Interactive Weather Map New forecast layout! Learn more

10-Day Weather Forecast

Advertisements
Track Severe Weather on mobile